createdAt,value
2022-09-23T00:00:29.442Z,65.97
2022-09-23T00:01:29.470Z,67.16
2022-09-23T00:02:29.451Z,67.35
2022-09-23T00:03:29.370Z,68.40
2022-09-23T00:04:29.366Z,65.64
2022-09-23T00:05:29.356Z,66.64
2022-09-23T00:06:29.335Z,67.18
2022-09-23T00:07:29.334Z,66.59
2022-09-23T00:08:29.284Z,65.50
2022-09-23T00:09:29.312Z,66.37
2022-09-23T00:10:29.276Z,64.93
2022-09-23T00:11:29.267Z,69.56
2022-09-23T00:12:29.208Z,64.87
2022-09-23T00:13:29.202Z,67.62
2022-09-23T00:14:29.204Z,63.82
2022-09-23T00:15:29.202Z,64.73
2022-09-23T00:16:29.219Z,63.69
2022-09-23T00:17:29.143Z,65.59
2022-09-23T00:18:29.155Z,68.95
2022-09-23T00:19:29.085Z,68.60
2022-09-23T00:20:29.121Z,67.82
2022-09-23T00:21:29.151Z,67.01
2022-09-23T00:22:29.040Z,69.68
2022-09-23T00:23:29.019Z,68.42
2022-09-23T00:24:29.039Z,68.56
2022-09-23T00:25:29.022Z,69.67
2022-09-23T00:26:28.986Z,68.24
2022-09-23T00:27:28.967Z,66.13
2022-09-23T00:28:28.943Z,66.15
2022-09-23T00:29:28.950Z,68.96
2022-09-23T00:30:28.968Z,68.59
2022-09-23T00:31:28.896Z,67.09
2022-09-23T00:32:28.876Z,66.47
2022-09-23T00:33:28.862Z,67.66
2022-09-23T00:34:28.885Z,66.98
2022-09-23T00:35:28.831Z,67.25
2022-09-23T00:36:28.797Z,66.39
2022-09-23T00:37:28.800Z,69.29
2022-09-23T00:38:28.785Z,69.43
2022-09-23T00:39:28.774Z,67.93
2022-09-23T00:40:28.758Z,67.05
2022-09-23T00:41:28.717Z,69.87
2022-09-23T00:42:28.711Z,68.83
2022-09-23T00:43:28.685Z,68.28
2022-09-23T00:44:28.692Z,67.51
2022-09-23T00:45:28.640Z,68.91
2022-09-23T00:46:28.691Z,65.58
2022-09-23T00:47:28.604Z,69.26
2022-09-23T00:48:28.591Z,70.72
2022-09-23T00:49:28.623Z,67.07
2022-09-23T00:50:28.584Z,69.66
2022-09-23T00:51:28.537Z,69.88
2022-09-23T00:52:28.541Z,69.81
2022-09-23T00:53:28.499Z,68.07
2022-09-23T00:54:28.515Z,66.65
2022-09-23T00:55:28.558Z,70.08
2022-09-23T00:56:28.461Z,68.56
2022-09-23T00:57:28.438Z,66.21
2022-09-23T00:58:28.430Z,68.05
2022-09-23T00:59:28.434Z,69.83
2022-09-23T01:00:28.383Z,68.66
2022-09-23T01:01:28.423Z,68.57
2022-09-23T01:02:28.480Z,69.90
2022-09-23T01:03:28.342Z,68.04
2022-09-23T01:04:28.354Z,69.56
2022-09-23T01:05:28.317Z,68.60
2022-09-23T01:06:28.278Z,67.04
2022-09-23T01:07:28.284Z,66.60
2022-09-23T01:08:28.288Z,70.02
2022-09-23T01:09:28.289Z,67.56
2022-09-23T01:10:28.216Z,65.65
2022-09-23T01:11:28.198Z,69.55
2022-09-23T01:12:28.187Z,69.69
2022-09-23T01:13:28.177Z,67.44
2022-09-23T01:14:28.219Z,69.03
2022-09-23T01:15:28.146Z,67.49
2022-09-23T01:16:28.226Z,66.85
2022-09-23T01:17:28.097Z,69.75
2022-09-23T01:18:28.096Z,71.30
2022-09-23T01:19:28.095Z,69.90
2022-09-23T01:20:28.059Z,66.37
2022-09-23T01:21:28.026Z,68.60
2022-09-23T01:22:28.024Z,69.99
2022-09-23T01:23:27.988Z,68.53
2022-09-23T01:24:28.030Z,70.21
2022-09-23T01:25:27.961Z,67.66
2022-09-23T01:26:27.958Z,68.67
2022-09-23T01:27:27.958Z,69.69
2022-09-23T01:28:27.916Z,68.55
2022-09-23T01:29:27.938Z,69.22
2022-09-23T01:30:27.902Z,66.64
2022-09-23T01:31:27.880Z,68.62
2022-09-23T01:32:27.853Z,66.75
2022-09-23T01:33:27.837Z,69.09
2022-09-23T01:34:27.852Z,67.81
2022-09-23T01:35:27.806Z,68.07
2022-09-23T01:36:27.779Z,67.54
2022-09-23T01:37:27.774Z,67.45
2022-09-23T01:38:27.884Z,68.02
2022-09-23T01:39:27.753Z,67.50
2022-09-23T01:40:27.764Z,66.30
2022-09-23T01:41:27.701Z,67.12
2022-09-23T01:42:27.671Z,68.07
2022-09-23T01:43:27.652Z,69.23
2022-09-23T01:44:27.674Z,68.53
2022-09-23T01:45:27.631Z,69.33
2022-09-23T01:46:27.613Z,65.69
2022-09-23T01:47:27.583Z,66.69
2022-09-23T01:48:27.747Z,68.16
2022-09-23T01:49:27.587Z,68.27
2022-09-23T01:50:27.550Z,68.72
2022-09-23T01:51:27.522Z,67.24
2022-09-23T01:52:27.511Z,70.78
2022-09-23T01:53:27.521Z,69.75
2022-09-23T01:54:27.470Z,65.62
2022-09-23T01:55:27.491Z,68.99
2022-09-23T01:56:27.446Z,68.70
2022-09-23T01:57:27.440Z,66.23
2022-09-23T01:58:27.393Z,71.45
2022-09-23T01:59:27.454Z,68.50
2022-09-23T02:00:27.378Z,66.64
2022-09-23T02:01:27.405Z,68.70
2022-09-23T02:02:27.403Z,67.05
2022-09-23T02:03:27.330Z,69.03
2022-09-23T02:04:27.358Z,68.70
2022-09-23T02:05:27.308Z,66.58
2022-09-23T02:06:27.295Z,67.84
2022-09-23T02:07:27.292Z,68.67
2022-09-23T02:08:27.232Z,68.76
2022-09-23T02:09:27.309Z,67.33
2022-09-23T02:10:27.198Z,66.46
2022-09-23T02:11:27.190Z,69.24
2022-09-23T02:12:27.207Z,68.54
2022-09-23T02:13:27.157Z,68.47
2022-09-23T02:14:27.161Z,68.41
2022-09-23T02:15:27.141Z,67.49
2022-09-23T02:16:27.149Z,65.76
2022-09-23T02:17:27.089Z,67.98
2022-09-23T02:18:27.084Z,69.67
2022-09-23T02:19:27.093Z,68.25
2022-09-23T02:20:27.056Z,68.18
2022-09-23T02:21:27.030Z,69.94
2022-09-23T02:22:27.002Z,70.75
2022-09-23T02:23:27.013Z,68.78
2022-09-23T02:24:27.014Z,69.37
2022-09-23T02:25:26.957Z,68.31
2022-09-23T02:26:26.950Z,68.56
2022-09-23T02:27:26.931Z,69.04
2022-09-23T02:28:26.912Z,68.83
2022-09-23T02:29:26.954Z,69.23
2022-09-23T02:30:26.864Z,69.38
2022-09-23T02:31:26.894Z,69.62
2022-09-23T02:32:26.829Z,70.09
2022-09-23T02:33:26.831Z,69.94
2022-09-23T02:34:26.839Z,67.60
2022-09-23T02:35:26.823Z,69.31
2022-09-23T02:36:26.781Z,70.05
2022-09-23T02:37:26.739Z,71.03
2022-09-23T02:38:26.730Z,69.64
2022-09-23T02:39:26.764Z,70.71
2022-09-23T02:40:26.754Z,68.95
2022-09-23T02:41:26.691Z,68.93
2022-09-23T02:42:26.667Z,69.07
2022-09-23T02:43:26.630Z,67.98
2022-09-23T02:44:26.660Z,67.75
2022-09-23T02:45:26.701Z,69.31
2022-09-23T02:46:26.604Z,69.30
2022-09-23T02:47:26.582Z,69.91
2022-09-23T02:48:26.604Z,70.35
2022-09-23T02:49:26.586Z,69.33
2022-09-23T02:50:26.578Z,70.73
2022-09-23T02:51:26.598Z,70.06
2022-09-23T02:52:26.494Z,69.06
2022-09-23T02:53:26.490Z,70.54
2022-09-23T02:54:26.515Z,70.92
2022-09-23T02:55:26.460Z,70.93
2022-09-23T02:56:26.440Z,69.54
2022-09-23T02:57:26.418Z,68.79
2022-09-23T02:58:26.410Z,67.89
2022-09-23T02:59:26.402Z,70.06
2022-09-23T03:00:26.381Z,68.66
2022-09-23T03:01:26.480Z,69.38
2022-09-23T03:02:26.378Z,69.04
2022-09-23T03:03:26.306Z,66.71
2022-09-23T03:04:26.288Z,69.46
2022-09-23T03:05:26.289Z,70.04
2022-09-23T03:06:26.244Z,68.83
2022-09-23T03:07:26.227Z,67.20
2022-09-23T03:08:26.204Z,70.02
2022-09-23T03:09:26.192Z,70.50
2022-09-23T03:10:26.202Z,70.30
2022-09-23T03:11:26.172Z,70.63
2022-09-23T03:12:26.170Z,67.62
2022-09-23T03:13:29.253Z,70.28
2022-09-23T03:14:27.117Z,68.75
2022-09-23T03:15:26.131Z,69.57
2022-09-23T03:16:26.106Z,69.96
2022-09-23T03:17:26.049Z,70.18
2022-09-23T03:18:26.063Z,69.54
2022-09-23T03:19:26.023Z,70.95
2022-09-23T03:20:27.053Z,70.01
2022-09-23T03:21:26.009Z,68.67
2022-09-23T03:22:25.983Z,70.09
2022-09-23T03:23:25.963Z,69.45
2022-09-23T03:24:25.945Z,67.74
2022-09-23T03:25:25.962Z,69.07
2022-09-23T03:26:25.915Z,69.92
2022-09-23T03:27:25.911Z,70.89
2022-09-23T03:28:25.883Z,71.02
2022-09-23T03:29:25.864Z,68.19
2022-09-23T03:30:25.888Z,70.53
2022-09-23T03:31:25.928Z,67.64
2022-09-23T03:32:25.811Z,67.85
2022-09-23T03:33:28.701Z,70.31
2022-09-23T03:34:26.773Z,70.16
2022-09-23T03:35:25.807Z,71.28
2022-09-23T03:36:25.761Z,69.10
2022-09-23T03:37:25.741Z,68.81
2022-09-23T03:38:25.724Z,70.03
2022-09-23T03:39:25.682Z,69.25
2022-09-23T03:40:25.775Z,68.60
2022-09-23T03:41:25.660Z,72.04
2022-09-23T03:42:25.656Z,70.78
2022-09-23T03:43:25.648Z,69.63
2022-09-23T03:44:25.625Z,71.01
2022-09-23T03:45:25.656Z,69.56
2022-09-23T03:46:25.577Z,67.30
2022-09-23T03:47:25.598Z,69.91
2022-09-23T03:48:25.556Z,69.60
2022-09-23T03:49:25.537Z,69.97
2022-09-23T03:50:25.567Z,70.67
2022-09-23T03:51:25.519Z,69.13
2022-09-23T03:52:25.482Z,71.75
2022-09-23T03:53:25.469Z,71.20
2022-09-23T03:54:25.467Z,70.37
2022-09-23T03:55:25.480Z,70.84
2022-09-23T03:56:25.404Z,69.24
2022-09-23T03:57:25.405Z,69.54
2022-09-23T03:58:25.400Z,67.78
2022-09-23T03:59:25.370Z,70.74
2022-09-23T04:00:25.368Z,70.73
2022-09-23T04:01:25.382Z,71.31
2022-09-23T04:02:25.414Z,70.40
2022-09-23T04:03:25.291Z,70.30
2022-09-23T04:04:25.257Z,69.96
2022-09-23T04:05:25.301Z,70.65
2022-09-23T04:06:25.234Z,70.86
2022-09-23T04:07:25.221Z,71.50
2022-09-23T04:08:25.213Z,69.49
2022-09-23T04:09:25.186Z,68.70
2022-09-23T04:10:25.228Z,69.39
2022-09-23T04:11:25.154Z,70.58
2022-09-23T04:12:25.161Z,67.99
2022-09-23T04:13:25.107Z,71.08
2022-09-23T04:14:25.101Z,70.60
2022-09-23T04:15:25.114Z,68.47
2022-09-23T04:16:25.127Z,70.54
2022-09-23T04:17:25.041Z,71.87
2022-09-23T04:18:25.027Z,72.41
2022-09-23T04:19:26.018Z,70.80
2022-09-23T04:20:25.048Z,71.69
2022-09-23T04:21:25.001Z,71.45
2022-09-23T04:22:24.963Z,69.53
2022-09-23T04:23:24.995Z,70.00
2022-09-23T04:24:24.931Z,69.86
2022-09-23T04:25:24.930Z,69.43
2022-09-23T04:26:24.887Z,71.25
2022-09-23T04:27:24.870Z,70.38
2022-09-23T04:28:24.864Z,67.63
2022-09-23T04:29:24.896Z,70.37
2022-09-23T04:30:24.866Z,71.65
2022-09-23T04:31:24.908Z,71.65
2022-09-23T04:32:24.849Z,72.20
2022-09-23T04:33:24.793Z,70.73
2022-09-23T04:34:24.781Z,70.58
2022-09-23T04:35:24.804Z,71.48
2022-09-23T04:36:24.724Z,71.25
2022-09-23T04:37:24.714Z,70.45
2022-09-23T04:38:24.708Z,68.28
2022-09-23T04:39:24.697Z,71.11
2022-09-23T04:40:24.762Z,71.97
2022-09-23T04:41:24.650Z,72.03
2022-09-23T04:42:24.651Z,69.85
2022-09-23T04:43:24.634Z,70.55
2022-09-23T04:44:24.609Z,72.22
2022-09-23T04:45:24.615Z,70.82
2022-09-23T04:46:24.660Z,71.27
2022-09-23T04:47:24.553Z,71.29
2022-09-23T04:48:24.541Z,69.18
2022-09-23T04:49:24.529Z,71.13
2022-09-23T04:50:24.534Z,69.78
2022-09-23T04:51:24.513Z,69.43
2022-09-23T04:52:24.449Z,69.03
2022-09-23T04:53:25.445Z,69.96
2022-09-23T04:54:24.434Z,70.07
2022-09-23T04:55:24.441Z,69.86
2022-09-23T04:56:24.396Z,70.28
2022-09-23T04:57:24.392Z,70.03
2022-09-23T04:58:24.357Z,71.42
2022-09-23T04:59:24.346Z,72.11
2022-09-23T05:00:24.360Z,71.57
2022-09-23T05:01:24.402Z,71.69
2022-09-23T05:02:24.339Z,71.33
2022-09-23T05:03:24.278Z,71.26
2022-09-23T05:04:24.264Z,70.66
2022-09-23T05:05:24.293Z,70.93
2022-09-23T05:06:24.231Z,71.25
2022-09-23T05:07:24.196Z,70.54
2022-09-23T05:08:24.208Z,71.50
2022-09-23T05:09:24.173Z,70.70
2022-09-23T05:10:24.199Z,72.08
2022-09-23T05:11:24.133Z,71.08
2022-09-23T05:12:24.148Z,71.29
2022-09-23T05:13:24.127Z,71.45
2022-09-23T05:14:24.112Z,69.98
2022-09-23T05:15:24.158Z,70.35
2022-09-23T05:16:24.198Z,71.11
2022-09-23T05:17:24.043Z,70.89
2022-09-23T05:18:24.019Z,71.73
2022-09-23T05:19:24.042Z,69.65
2022-09-23T05:20:24.067Z,70.89
2022-09-23T05:21:24.037Z,70.19
2022-09-23T05:22:23.951Z,69.70
2022-09-23T05:23:23.940Z,71.14
2022-09-23T05:24:23.953Z,69.76
2022-09-23T05:25:23.936Z,71.24
2022-09-23T05:26:23.889Z,71.34
2022-09-23T05:27:23.869Z,69.87
2022-09-23T05:28:23.854Z,70.11
2022-09-23T05:29:23.836Z,71.57
2022-09-23T05:30:23.843Z,71.46
2022-09-23T05:31:23.980Z,70.35
2022-09-23T05:32:23.836Z,71.70
2022-09-23T05:33:23.762Z,71.06
2022-09-23T05:34:23.769Z,71.96
2022-09-23T05:35:23.767Z,70.57
2022-09-23T05:36:23.731Z,72.92
2022-09-23T05:37:23.694Z,70.13
2022-09-23T05:38:23.682Z,70.55
2022-09-23T05:39:23.665Z,71.03
2022-09-23T05:40:23.736Z,70.57
2022-09-23T05:41:23.632Z,71.54
2022-09-23T05:42:23.625Z,70.16
2022-09-23T05:43:23.625Z,70.27
2022-09-23T05:44:23.586Z,71.00
2022-09-23T05:45:24.317Z,70.69
2022-09-23T05:46:23.621Z,70.25
2022-09-23T05:47:23.557Z,69.15
2022-09-23T05:48:23.507Z,67.93
2022-09-23T05:49:33.225Z,68.00
2022-09-23T05:50:25.510Z,70.19
2022-09-23T05:51:25.524Z,70.00
2022-09-23T05:52:24.453Z,67.99
2022-09-23T05:53:23.433Z,69.24
2022-09-23T05:54:23.412Z,69.41
2022-09-23T05:55:23.433Z,70.97
2022-09-23T05:56:23.393Z,69.89
2022-09-23T05:57:23.357Z,69.78
2022-09-23T05:58:23.366Z,70.86
2022-09-23T05:59:23.382Z,69.77
2022-09-23T06:00:23.356Z,69.23
2022-09-23T06:01:23.314Z,66.97
2022-09-23T06:02:23.345Z,68.65
2022-09-23T06:03:23.348Z,69.25
2022-09-23T06:04:23.263Z,68.95
2022-09-23T06:05:23.278Z,69.61
2022-09-23T06:06:23.266Z,69.95
2022-09-23T06:07:23.203Z,69.40
2022-09-23T06:08:23.191Z,69.80
2022-09-23T06:09:23.179Z,68.06
2022-09-23T06:10:23.186Z,67.54
2022-09-23T06:11:23.196Z,68.48
2022-09-23T06:12:23.110Z,66.82
2022-09-23T06:13:23.232Z,68.06
2022-09-23T06:14:23.092Z,68.62
2022-09-23T06:15:23.103Z,67.80
2022-09-23T06:16:23.103Z,69.25
2022-09-23T06:17:23.029Z,67.84
2022-09-23T06:18:23.016Z,68.06
2022-09-23T06:19:22.997Z,66.60
2022-09-23T06:20:23.036Z,67.91
2022-09-23T06:21:22.960Z,67.45
2022-09-23T06:22:22.939Z,66.76
2022-09-23T06:23:26.347Z,67.51
2022-09-23T06:24:28.588Z,67.57
2022-09-23T06:25:24.934Z,66.63
2022-09-23T06:26:22.865Z,67.80
2022-09-23T06:27:22.901Z,66.99
2022-09-23T06:28:22.817Z,67.96
2022-09-23T06:29:22.823Z,67.55
2022-09-23T06:30:22.840Z,68.97
2022-09-23T06:31:22.936Z,68.60
2022-09-23T06:32:22.759Z,68.18
2022-09-23T06:33:32.446Z,66.92
2022-09-23T06:34:24.744Z,67.23
2022-09-23T06:35:27.435Z,66.10
2022-09-23T06:36:40.339Z,68.36
2022-09-23T06:37:24.709Z,69.29
2022-09-23T06:38:22.665Z,68.20
2022-09-23T06:39:22.677Z,69.08
2022-09-23T06:40:22.775Z,68.00
2022-09-23T06:41:22.608Z,68.93
2022-09-23T06:42:22.611Z,69.07
2022-09-23T06:43:22.595Z,70.46
2022-09-23T06:44:22.578Z,68.63
2022-09-23T06:45:22.587Z,69.36
2022-09-23T06:46:22.565Z,69.49
2022-09-23T06:47:22.524Z,68.42
2022-09-23T06:48:22.548Z,68.72
2022-09-23T06:49:22.484Z,69.31
2022-09-23T06:50:22.510Z,69.99
2022-09-23T06:51:22.485Z,69.48
2022-09-23T06:52:22.480Z,67.76
2022-09-23T06:53:22.417Z,67.35
2022-09-23T06:54:22.405Z,68.77
2022-09-23T06:55:22.472Z,70.34
2022-09-23T06:56:22.424Z,70.78
2022-09-23T06:57:22.447Z,69.37
2022-09-23T06:58:22.348Z,69.76
2022-09-23T06:59:22.301Z,69.44
2022-09-23T07:00:22.360Z,70.33
2022-09-23T07:01:22.383Z,69.31
2022-09-23T07:02:22.354Z,68.98
2022-09-23T07:03:22.242Z,68.77
2022-09-23T07:04:24.109Z,70.72
2022-09-23T07:05:23.224Z,70.06
2022-09-23T07:06:22.175Z,70.77
2022-09-23T07:07:22.156Z,68.66
2022-09-23T07:08:22.162Z,69.96
2022-09-23T07:09:22.123Z,69.23
2022-09-23T07:10:22.146Z,71.05
2022-09-23T07:11:22.083Z,68.43
2022-09-23T07:12:22.075Z,67.92
2022-09-23T07:13:22.089Z,68.76
2022-09-23T07:14:22.039Z,67.82
2022-09-23T07:15:22.052Z,66.60
2022-09-23T07:16:22.061Z,67.67
2022-09-23T07:17:22.010Z,68.56
2022-09-23T07:18:21.972Z,66.65
2022-09-23T07:19:21.949Z,69.04
2022-09-23T07:20:22.024Z,69.09
2022-09-23T07:21:21.928Z,66.77
2022-09-23T07:22:21.902Z,66.85
2022-09-23T07:23:21.896Z,67.46
2022-09-23T07:24:21.880Z,66.56
2022-09-23T07:25:21.878Z,67.07
2022-09-23T07:26:21.847Z,67.29
2022-09-23T07:27:21.814Z,65.90
2022-09-23T07:28:21.800Z,66.27
2022-09-23T07:29:21.788Z,67.85
2022-09-23T07:30:25.321Z,67.91
2022-09-23T07:31:35.650Z,68.15
2022-09-23T07:32:23.782Z,65.32
2022-09-23T07:33:31.448Z,68.48
2022-09-23T07:34:23.720Z,67.15
2022-09-23T07:35:21.735Z,67.05
2022-09-23T07:36:21.678Z,66.23
2022-09-23T07:37:21.644Z,65.20
2022-09-23T07:38:21.640Z,65.88
2022-09-23T07:39:21.626Z,67.01
2022-09-23T07:40:21.684Z,66.84
2022-09-23T07:41:21.598Z,66.67
2022-09-23T07:42:21.570Z,65.97
2022-09-23T07:43:21.565Z,66.70
2022-09-23T07:44:21.607Z,63.52
2022-09-23T07:45:21.579Z,63.54
2022-09-23T07:46:21.535Z,64.75
2022-09-23T07:47:21.507Z,65.94
2022-09-23T07:48:21.514Z,65.96
2022-09-23T07:49:21.483Z,64.82
2022-09-23T07:50:21.483Z,65.74
2022-09-23T07:51:21.460Z,67.15
2022-09-23T07:52:21.444Z,65.78
2022-09-23T07:53:21.423Z,64.42
2022-09-23T07:54:21.408Z,65.15
2022-09-23T07:55:21.413Z,66.35
2022-09-23T07:56:21.400Z,67.16
2022-09-23T07:57:21.361Z,66.63
2022-09-23T07:58:21.374Z,64.23
2022-09-23T07:59:21.317Z,63.81
2022-09-23T08:00:21.338Z,64.88
2022-09-23T08:01:21.329Z,65.39
2022-09-23T08:02:21.316Z,65.11
2022-09-23T08:03:21.292Z,64.28
2022-09-23T08:04:21.276Z,64.88
2022-09-23T08:05:21.231Z,64.48
2022-09-23T08:06:21.217Z,65.59
2022-09-23T08:07:21.191Z,65.40
2022-09-23T08:08:21.188Z,65.27
2022-09-23T08:09:21.207Z,63.29
2022-09-23T08:10:21.155Z,63.11
2022-09-23T08:11:21.156Z,63.92
2022-09-23T08:12:21.160Z,65.42
2022-09-23T08:13:21.097Z,66.90
2022-09-23T08:14:21.165Z,63.63
2022-09-23T08:15:21.069Z,61.29
2022-09-23T08:16:21.086Z,64.71
2022-09-23T08:17:21.047Z,64.86
2022-09-23T08:18:21.044Z,65.45
2022-09-23T08:19:21.045Z,65.01
2022-09-23T08:20:21.020Z,63.73
2022-09-23T08:21:20.985Z,65.55
2022-09-23T08:22:20.988Z,64.96
2022-09-23T08:23:20.978Z,65.79
2022-09-23T08:24:20.944Z,66.49
2022-09-23T08:25:22.642Z,62.57
2022-09-23T08:26:22.554Z,65.33
2022-09-23T08:27:21.932Z,65.00
2022-09-23T08:28:20.871Z,66.09
2022-09-23T08:29:20.869Z,64.67
2022-09-23T08:30:20.876Z,64.60
2022-09-23T08:31:20.870Z,65.47
2022-09-23T08:32:20.813Z,65.34
2022-09-23T08:33:23.407Z,64.40
2022-09-23T08:34:21.804Z,65.00
2022-09-23T08:35:20.811Z,65.06
2022-09-23T08:36:20.765Z,64.38
2022-09-23T08:37:20.748Z,64.51
2022-09-23T08:38:20.773Z,64.92
2022-09-23T08:39:20.854Z,64.83
2022-09-23T08:40:20.745Z,64.50
2022-09-23T08:41:20.705Z,64.91
2022-09-23T08:42:20.670Z,65.03
2022-09-23T08:43:20.670Z,63.72
2022-09-23T08:44:20.632Z,64.93
2022-09-23T08:45:20.644Z,63.47
2022-09-23T08:46:20.733Z,63.64
2022-09-23T08:47:20.579Z,63.15
2022-09-23T08:48:20.576Z,64.69
2022-09-23T08:49:20.549Z,63.56
2022-09-23T08:50:20.662Z,65.21
2022-09-23T08:51:20.522Z,64.29
2022-09-23T08:52:20.479Z,64.83
2022-09-23T08:53:20.525Z,65.20
2022-09-23T08:54:20.456Z,63.94
2022-09-23T08:55:20.467Z,64.11
2022-09-23T08:56:20.419Z,64.35
2022-09-23T08:57:20.402Z,64.43
2022-09-23T08:58:25.271Z,64.31
2022-09-23T08:59:22.386Z,66.75
2022-09-23T09:00:20.437Z,64.43
2022-09-23T09:01:20.391Z,64.81
2022-09-23T09:02:20.404Z,64.47
2022-09-23T09:03:20.300Z,65.53
2022-09-23T09:04:20.317Z,64.36
2022-09-23T09:05:20.308Z,64.68
2022-09-23T09:06:20.260Z,66.15
2022-09-23T09:07:37.023Z,64.84
2022-09-23T09:08:22.245Z,64.51
2022-09-23T09:09:20.229Z,63.86
2022-09-23T09:10:20.329Z,66.09
2022-09-23T09:11:20.185Z,63.76
2022-09-23T09:12:20.167Z,63.70
2022-09-23T09:13:20.155Z,62.05
2022-09-23T09:14:20.144Z,65.05
2022-09-23T09:15:20.208Z,64.66
2022-09-23T09:16:31.700Z,63.50
2022-09-23T09:17:22.091Z,66.33
2022-09-23T09:18:20.094Z,64.00
2022-09-23T09:19:20.057Z,65.30
2022-09-23T09:20:20.110Z,65.06
2022-09-23T09:21:20.049Z,64.13
2022-09-23T09:22:20.015Z,64.94
2022-09-23T09:23:20.031Z,63.89
2022-09-23T09:24:19.970Z,64.82
2022-09-23T09:25:19.994Z,64.10
2022-09-23T09:26:19.945Z,62.84
2022-09-23T09:27:19.939Z,64.41
2022-09-23T09:28:19.903Z,63.70
2022-09-23T09:29:36.398Z,64.31
2022-09-23T09:30:21.915Z,64.86
2022-09-23T09:31:19.997Z,66.64
2022-09-23T09:32:19.865Z,65.58
2022-09-23T09:33:19.839Z,63.26
2022-09-23T09:34:19.816Z,65.38
2022-09-23T09:35:19.847Z,64.76
2022-09-23T09:36:19.789Z,66.11
2022-09-23T09:37:19.769Z,65.06
2022-09-23T09:38:19.764Z,65.77
2022-09-23T09:39:24.099Z,64.54
2022-09-23T09:40:21.801Z,62.39
2022-09-23T09:41:19.702Z,65.29
2022-09-23T09:42:19.687Z,65.03
2022-09-23T09:43:19.668Z,64.37
2022-09-23T09:44:19.651Z,66.48
2022-09-23T09:45:20.013Z,65.61
2022-09-23T09:46:20.678Z,64.12
2022-09-23T09:47:19.621Z,63.31
2022-09-23T09:48:19.678Z,65.66
2022-09-23T09:49:19.583Z,65.11
2022-09-23T09:50:19.591Z,64.93
2022-09-23T09:51:19.558Z,65.46
2022-09-23T09:52:19.555Z,65.71
2022-09-23T09:53:19.469Z,63.49
2022-09-23T09:54:19.459Z,64.59
2022-09-23T09:55:19.474Z,64.90
2022-09-23T09:56:19.430Z,64.08
2022-09-23T09:57:19.397Z,64.95
2022-09-23T09:58:19.386Z,64.45
2022-09-23T09:59:19.365Z,62.86
2022-09-23T10:00:19.397Z,63.12
2022-09-23T10:01:19.381Z,64.21
2022-09-23T10:02:19.313Z,64.58
2022-09-23T10:03:19.312Z,62.96
2022-09-23T10:04:19.308Z,64.57
2022-09-23T10:05:19.302Z,63.00
2022-09-23T10:06:19.257Z,61.47
2022-09-23T10:07:19.264Z,63.10
2022-09-23T10:08:19.247Z,62.32
2022-09-23T10:09:19.340Z,63.45
2022-09-23T10:10:31.950Z,63.90
2022-09-23T10:11:21.184Z,62.31
2022-09-23T10:12:19.168Z,62.11
2022-09-23T10:13:19.139Z,64.86
2022-09-23T10:14:19.132Z,63.85
2022-09-23T10:15:19.137Z,64.80
2022-09-23T10:16:19.150Z,63.21
2022-09-23T10:17:19.116Z,64.72
2022-09-23T10:18:19.057Z,63.38
2022-09-23T10:19:19.057Z,62.92
2022-09-23T10:20:19.067Z,63.00
2022-09-23T10:21:19.023Z,62.54
2022-09-23T10:22:19.031Z,62.58
2022-09-23T10:23:18.986Z,62.26
2022-09-23T10:24:18.984Z,62.62
2022-09-23T10:25:19.012Z,63.58
2022-09-23T10:26:18.934Z,64.44
2022-09-23T10:27:18.931Z,63.46
2022-09-23T10:28:18.902Z,63.21
2022-09-23T10:29:18.897Z,65.57
2022-09-23T10:30:18.909Z,63.55
2022-09-23T10:31:18.885Z,63.43
2022-09-23T10:32:18.865Z,63.03
2022-09-23T10:33:18.838Z,62.64
2022-09-23T10:34:18.823Z,64.49
2022-09-23T10:35:18.826Z,62.52
2022-09-23T10:36:18.790Z,62.79
2022-09-23T10:37:18.788Z,63.73
2022-09-23T10:38:18.748Z,62.70
2022-09-23T10:39:18.778Z,63.65
2022-09-23T10:40:18.826Z,66.15
2022-09-23T10:41:18.714Z,65.69
2022-09-23T10:42:18.699Z,63.02
2022-09-23T10:43:18.678Z,63.30
2022-09-23T10:44:18.660Z,63.09
2022-09-23T10:45:18.689Z,64.49
2022-09-23T10:46:18.661Z,62.85
2022-09-23T10:47:18.612Z,63.33
2022-09-23T10:48:18.607Z,64.01
2022-09-23T10:49:18.584Z,63.55
2022-09-23T10:50:18.613Z,63.46
2022-09-23T10:51:22.696Z,65.18
2022-09-23T10:52:19.555Z,64.38
2022-09-23T10:53:18.541Z,64.03
2022-09-23T10:54:18.517Z,64.64
2022-09-23T10:55:18.552Z,64.85
2022-09-23T10:56:18.480Z,63.31
2022-09-23T10:57:18.538Z,64.28
2022-09-23T10:58:18.444Z,65.38
2022-09-23T10:59:18.460Z,63.97
2022-09-23T11:00:18.769Z,63.03
2022-09-23T11:01:18.450Z,63.59
2022-09-23T11:02:18.481Z,63.74
2022-09-23T11:03:18.371Z,64.44
2022-09-23T11:04:18.720Z,65.02
2022-09-23T11:05:18.380Z,65.58
2022-09-23T11:06:18.331Z,65.28
2022-09-23T11:07:18.307Z,65.62
2022-09-23T11:08:18.315Z,66.39
2022-09-23T11:09:18.303Z,66.15
2022-09-23T11:10:35.264Z,66.05
2022-09-23T11:11:20.255Z,64.76
2022-09-23T11:12:18.249Z,64.89
2022-09-23T11:13:18.228Z,65.98
2022-09-23T11:14:18.206Z,65.27
2022-09-23T11:15:18.213Z,65.60
2022-09-23T11:16:18.231Z,64.15
2022-09-23T11:17:18.155Z,64.85
2022-09-23T11:18:18.159Z,64.32
2022-09-23T11:19:18.171Z,65.46
2022-09-23T11:20:18.121Z,65.34
2022-09-23T11:21:18.099Z,66.02
2022-09-23T11:22:18.090Z,66.72
2022-09-23T11:23:18.067Z,65.65
2022-09-23T11:24:18.056Z,65.31
2022-09-23T11:25:18.075Z,65.76
2022-09-23T11:26:18.052Z,65.11
2022-09-23T11:27:18.055Z,64.47
2022-09-23T11:28:17.979Z,67.33
2022-09-23T11:29:17.979Z,65.49
2022-09-23T11:30:17.990Z,66.41
2022-09-23T11:31:17.968Z,64.79
2022-09-23T11:32:18.262Z,65.74
2022-09-23T11:33:17.935Z,65.23
2022-09-23T11:34:17.886Z,64.47
2022-09-23T11:35:17.901Z,65.38
2022-09-23T11:36:17.848Z,65.18
2022-09-23T11:37:17.842Z,64.90
2022-09-23T11:38:17.838Z,64.43
2022-09-23T11:39:17.810Z,64.97
2022-09-23T11:40:17.842Z,64.31
2022-09-23T11:41:17.770Z,65.47
2022-09-23T11:42:17.848Z,66.55
2022-09-23T11:43:17.738Z,65.61
2022-09-23T11:44:17.734Z,65.09
2022-09-23T11:45:17.737Z,67.49
2022-09-23T11:46:17.780Z,64.81
2022-09-23T11:47:17.669Z,65.58
2022-09-23T11:48:17.664Z,66.16
2022-09-23T11:49:17.634Z,64.53
2022-09-23T11:50:17.685Z,65.14
2022-09-23T11:51:17.734Z,64.28
2022-09-23T11:52:17.594Z,63.73
2022-09-23T11:53:17.563Z,64.07
2022-09-23T11:54:20.607Z,65.89
2022-09-23T11:55:22.792Z,66.58
2022-09-23T11:56:30.197Z,65.54
2022-09-23T11:57:19.501Z,67.45
2022-09-23T11:58:25.200Z,66.60
2022-09-23T11:59:25.735Z,65.35
2022-09-23T12:00:18.508Z,64.08
2022-09-23T12:01:18.738Z,65.64
2022-09-23T12:02:21.225Z,66.05
2022-09-23T12:03:18.631Z,64.41
2022-09-23T12:04:20.822Z,65.08
2022-09-23T12:05:18.552Z,64.97
2022-09-23T12:06:17.376Z,65.84
2022-09-23T12:07:17.344Z,64.87
2022-09-23T12:08:17.348Z,64.78
2022-09-23T12:09:17.353Z,66.21
2022-09-23T12:10:17.296Z,64.97
2022-09-23T12:11:17.287Z,66.05
2022-09-23T12:12:17.262Z,67.09
2022-09-23T12:13:17.247Z,67.83
2022-09-23T12:14:17.260Z,66.97
2022-09-23T12:15:17.203Z,68.42
2022-09-23T12:16:17.212Z,65.40
2022-09-23T12:17:17.169Z,65.34
2022-09-23T12:18:20.930Z,66.60
2022-09-23T12:19:19.160Z,65.98
2022-09-23T12:20:17.127Z,65.61
2022-09-23T12:21:33.032Z,67.02
2022-09-23T12:22:19.094Z,68.32
2022-09-23T12:23:17.073Z,68.85
2022-09-23T12:24:19.171Z,68.14
2022-09-23T12:25:18.094Z,66.98
2022-09-23T12:26:17.026Z,65.00
2022-09-23T12:27:17.012Z,65.99
2022-09-23T12:28:16.988Z,67.85
2022-09-23T12:29:17.007Z,66.50
2022-09-23T12:30:16.968Z,66.83
2022-09-23T12:31:16.985Z,65.22
2022-09-23T12:32:16.915Z,66.50
2022-09-23T12:33:16.899Z,67.09
2022-09-23T12:34:16.954Z,66.48
2022-09-23T12:35:16.867Z,65.76
2022-09-23T12:36:16.840Z,66.00
2022-09-23T12:37:16.852Z,65.11
2022-09-23T12:38:16.835Z,67.30
2022-09-23T12:39:16.832Z,66.40
2022-09-23T12:40:16.852Z,67.03
2022-09-23T12:41:16.759Z,67.73
2022-09-23T12:42:16.760Z,65.32
2022-09-23T12:43:16.738Z,65.43
2022-09-23T12:44:16.739Z,68.05
2022-09-23T12:45:16.704Z,67.24
2022-09-23T12:46:16.715Z,67.36
2022-09-23T12:47:16.658Z,66.70
2022-09-23T12:48:16.652Z,66.83
2022-09-23T12:49:16.625Z,65.82
2022-09-23T12:50:18.446Z,64.74
2022-09-23T12:51:17.585Z,65.15
2022-09-23T12:52:16.576Z,63.13